Airfield :
LOGIN :

Register | Disclaimer

   EN    FR    IT 

 










Legend :    VFR   Marginal VFR   IFR   Intensive IFR   Very Intensive IFR
Visi :
Ceiling :
>= 8 km
>= 3000ft
5 to 8 km
1000 to 3000 ft
1500m to 5 km
500 to 1000 ft
800 to 1500m
200 to 500 ft
< 800m
< 200 ft
Symbols :   Thunderstorms  Fog  Heavy snow  Heavy precipitations  Wind > 20 kt
SIGMETs :     Misc.  Thunderstorms  Icing  Turbulence  Mountain Waves  Volcanic Ashes






- Airport Elevation : 266 ft
- IATA code : NCL


EGNT - Newcastle

CURRENT METAR :
  • 061150Z AUTO 02019KT 9999 BKN015/// OVC033/// 11/07 Q0994 RERA

EXPIRED METARs :
  • 061120Z AUTO 01021G31KT 9999 BKN017/// OVC040/// 11/07 Q0993
  • 061050Z AUTO 01021KT 9999 OVC016/// 11/07 Q0993
  • 061020Z AUTO 36020KT 9999 BKN016/// 11/07 Q0992
  • 060950Z AUTO 36018G29KT 330V030 9999 BKN015/// OVC031/// 11/07 Q0991
  • 060920Z AUTO 35022KT 9999 BKN014/// OVC035/// 10/06 Q0990

TAF TAF EGNT
Valid from the 06 at 12:00 until the 07 at 12:00 UTC


061059Z 0612/0712 36018KT 9999 SCT035
TEMPO 0612/0617 01021G33KT 7000 SHRA BKN014
PROB30
TEMPO 0612/0615 4000 +SHRA BKN009
BECMG 0617/0620 34007KT
TEMPO 0621/0711 6000 RA BKN009
ATIS : +44 191 214 3400



MET'MAP, your aeronautical weather chart ! - Copyright ORBIFLY December 2007 - Disclaimer

ORBIFLY MET'MAP TEAM :

Programming & Development : Alexandra Zaïnal
Concept & original design : Baudouin d'Aumeries
Assistance for programming : Marc-Olivier Méhu
Technical & hardware support : Manuel Goepfert

Contact : metmap@orbifly.com




SOURCES & CREDITS :

   NOAA